Arenzville, Illinois
Current Conditions -  °F | °C
As of 7:15 AM on Friday 28 Nov 2014 (Local Time) from KIJX Reporting Station
Broken Clouds Broken Clouds  
Wind Chill: 14°   Ceiling: 12000
Heat Index: 24°   Visibility: 10mi
Dew Point: 19°   Wind: 9mph
Humidity: 82%   Direction: 140°SE
Pressure: 30.21"   Gusts: NA
Location:  39.88°N, 90.37°W
Report Text: KIJX 281315Z AUTO 14008KT 10SM BKN120 M05/M07 A3021 RMK AO2 T10461072
Loading
Personal Weather Stations






























Interactive Weather Map New forecast layout! Learn more

10-Day Weather Forecast

Advertisements
Track Severe Weather on mobile